Terminal Aerodrome Forecast
Issued by NWS

Home | Current Version | Previous Version | Text Only | Print | Product List | Glossary On
Versions: 1 2 3 4 5 6 7 8 9 10 11 12 13 14 15 16 17 18
000
FTAK31 PANC 240538
TAFAIL
TAF
PAIL 240538Z 2406/2506 02010KT 2SM -SN BKN015 OVC025 WS020/21040KT
      TEMPO 2406/2410 11011G20KT 1/2SM -SN FZFG BKN008
     FM241000 11010G23KT 2SM -SN BR SCT007 BKN010 OVC020
      WS020/24040KT
     FM241500 24011G28KT 6SM -SHSN BR SCT007 BKN015 OVC030
     FM241800 26014G25KT 6SM -SHSN BR SCT015 OVC040=

USA.gov is the U.S. government's official web portal to all federal, state and local government web resources and services.